createdAt,value
2022-10-28T00:01:42.638Z,8.50
2022-10-28T00:05:44.759Z,12.10
2022-10-28T00:09:45.859Z,13.60
2022-10-28T00:13:47.483Z,10.30
2022-10-28T00:17:48.654Z,9.13
2022-10-28T00:21:49.838Z,8.67
2022-10-28T00:25:51.018Z,11.23
2022-10-28T00:29:52.249Z,9.93
2022-10-28T00:33:54.048Z,10.27
2022-10-28T00:37:55.239Z,9.77
2022-10-28T00:42:01.171Z,9.03
2022-10-28T00:46:03.766Z,9.50
2022-10-28T00:50:28.611Z,12.97
2022-10-28T00:54:30.907Z,9.57
2022-10-28T00:58:32.298Z,12.73
2022-10-28T01:02:37.346Z,11.50
2022-10-28T01:06:38.808Z,10.90
2022-10-28T01:11:00.183Z,12.70
2022-10-28T01:15:08.355Z,10.23
2022-10-28T01:19:31.977Z,11.87
2022-10-28T01:23:55.997Z,9.57
2022-10-28T01:28:18.797Z,12.63
2022-10-28T01:32:30.253Z,9.30
2022-10-28T01:36:35.801Z,12.73
2022-10-28T01:40:59.496Z,10.00
2022-10-28T01:45:10.561Z,10.73
2022-10-28T01:49:34.376Z,8.80
2022-10-28T01:53:40.962Z,11.23
2022-10-28T01:57:43.416Z,8.80
2022-10-28T02:01:45.585Z,9.77
2022-10-28T02:05:53.723Z,9.40
2022-10-28T02:09:58.792Z,11.73
2022-10-28T02:14:12.455Z,10.77
2022-10-28T02:18:40.442Z,9.77
2022-10-28T02:22:48.719Z,14.07
2022-10-28T02:26:53.711Z,13.23
2022-10-28T02:31:01.719Z,16.83
2022-10-28T02:35:05.286Z,16.70
2022-10-28T02:39:07.295Z,11.83
2022-10-28T02:43:11.767Z,14.37
2022-10-28T02:47:17.558Z,10.73
2022-10-28T02:51:26.010Z,13.47
2022-10-28T02:55:30.904Z,15.00
2022-10-28T02:59:32.283Z,15.30
2022-10-28T03:03:33.580Z,13.80
2022-10-28T03:07:34.759Z,10.93
2022-10-28T03:11:35.967Z,12.03
2022-10-28T03:15:37.170Z,12.53
2022-10-28T03:19:38.373Z,16.53
2022-10-28T03:23:39.462Z,16.67
2022-10-28T03:27:40.860Z,15.43
2022-10-28T03:31:42.352Z,17.87
2022-10-28T03:35:43.958Z,12.33
2022-10-28T03:39:45.149Z,12.30
2022-10-28T03:43:46.327Z,12.67
2022-10-28T03:47:47.507Z,11.40
2022-10-28T03:51:49.098Z,10.50
2022-10-28T03:55:54.399Z,12.67
2022-10-28T03:59:55.684Z,13.43
2022-10-28T04:03:56.816Z,15.50
2022-10-28T04:07:58.051Z,16.03
2022-10-28T04:11:59.272Z,15.87
2022-10-28T04:16:01.459Z,10.90
2022-10-28T04:20:03.569Z,13.33
2022-10-28T04:24:05.511Z,10.70
2022-10-28T04:28:06.798Z,13.17
2022-10-28T04:32:08.388Z,10.23
2022-10-28T04:36:09.589Z,12.63
2022-10-28T04:40:11.379Z,9.97
2022-10-28T04:44:12.665Z,18.80
2022-10-28T04:48:13.859Z,12.43
2022-10-28T04:52:15.899Z,12.83
2022-10-28T04:56:17.371Z,14.27
2022-10-28T05:00:18.858Z,11.40
2022-10-28T05:04:20.036Z,12.50
2022-10-28T05:08:21.226Z,9.83
2022-10-28T05:12:22.307Z,12.20
2022-10-28T05:16:23.421Z,11.83
2022-10-28T05:20:24.617Z,14.27
2022-10-28T05:24:25.792Z,17.53
2022-10-28T05:28:26.976Z,13.60
2022-10-28T05:32:28.069Z,12.13
2022-10-28T05:36:29.244Z,9.50
2022-10-28T05:40:32.036Z,11.50
2022-10-28T05:44:33.217Z,13.40
2022-10-28T05:48:34.400Z,13.03
2022-10-28T05:52:35.614Z,10.97
2022-10-28T05:56:36.804Z,9.90
2022-10-28T06:00:38.098Z,9.77
2022-10-28T06:04:39.298Z,11.70
2022-10-28T06:08:40.470Z,13.53
2022-10-28T06:12:40.027Z,10.27
2022-10-28T06:16:41.590Z,9.23
2022-10-28T06:20:42.882Z,12.97
2022-10-28T06:24:44.134Z,10.03
2022-10-28T06:28:46.445Z,8.13
2022-10-28T06:32:47.630Z,9.80
2022-10-28T06:36:48.919Z,7.97
2022-10-28T06:40:52.402Z,9.93
2022-10-28T06:44:53.084Z,12.70
2022-10-28T06:48:56.273Z,29.40
2022-10-28T06:52:58.065Z,18.30
2022-10-28T06:56:59.259Z,15.57
2022-10-28T07:01:05.452Z,15.80
2022-10-28T07:05:07.423Z,13.47
2022-10-28T07:09:12.255Z,12.93
2022-10-28T07:13:13.409Z,15.33
2022-10-28T07:17:14.589Z,15.70
2022-10-28T07:21:17.558Z,12.30
2022-10-28T07:25:18.742Z,10.30
2022-10-28T07:29:19.934Z,11.53
2022-10-28T07:33:21.099Z,10.03
2022-10-28T07:37:22.174Z,10.90
2022-10-28T07:41:24.165Z,11.63
2022-10-28T07:45:25.365Z,14.50
2022-10-28T07:49:26.551Z,10.60
2022-10-28T07:53:28.902Z,10.93
2022-10-28T07:57:30.426Z,11.60
2022-10-28T08:01:31.584Z,12.03
2022-10-28T08:05:32.883Z,17.00
2022-10-28T08:09:34.061Z,16.70
2022-10-28T08:13:39.305Z,11.93
2022-10-28T08:17:38.302Z,10.97
2022-10-28T08:21:39.536Z,11.10
2022-10-28T08:25:49.595Z,10.57
2022-10-28T08:29:52.565Z,12.30
2022-10-28T08:33:53.669Z,9.83
2022-10-28T08:37:55.195Z,13.07
2022-10-28T08:42:17.130Z,10.30
2022-10-28T08:46:27.642Z,9.33
2022-10-28T08:50:31.225Z,8.23
2022-10-28T08:54:39.353Z,11.87
2022-10-28T08:58:43.437Z,8.60
2022-10-28T09:02:48.419Z,9.30
2022-10-28T09:06:49.500Z,9.20
2022-10-28T09:11:15.678Z,10.50
2022-10-28T09:15:29.857Z,8.57
2022-10-28T09:19:41.091Z,46.17
2022-10-28T09:23:52.087Z,21.53
2022-10-28T09:28:00.059Z,10.30
2022-10-28T09:32:23.181Z,9.40
2022-10-28T09:36:34.080Z,9.63
2022-10-28T09:40:37.906Z,10.20
2022-10-28T09:44:42.701Z,9.03
2022-10-28T09:48:50.584Z,10.30
2022-10-28T09:53:24.888Z,11.27
2022-10-28T09:57:29.882Z,8.57
2022-10-28T10:01:37.176Z,14.77
2022-10-28T10:05:42.249Z,9.10
2022-10-28T10:09:44.020Z,6.57
2022-10-28T10:13:45.314Z,9.20
2022-10-28T10:17:47.112Z,9.00
2022-10-28T10:21:53.548Z,8.40
2022-10-28T10:25:58.242Z,6.63
2022-10-28T10:29:59.716Z,8.93
2022-10-28T10:34:01.339Z,10.03
2022-10-28T10:38:05.128Z,10.70
2022-10-28T10:42:16.825Z,13.63
2022-10-28T10:46:17.896Z,9.03
2022-10-28T10:50:22.810Z,8.20
2022-10-28T10:54:31.120Z,8.17
2022-10-28T10:58:36.010Z,7.47
2022-10-28T11:02:38.795Z,14.37
2022-10-28T11:06:42.897Z,10.47
2022-10-28T11:10:44.094Z,8.60
2022-10-28T11:15:00.019Z,9.90
2022-10-28T11:19:05.026Z,13.87
2022-10-28T11:23:26.767Z,7.97
2022-10-28T11:27:51.739Z,13.60
2022-10-28T11:32:10.086Z,8.67
2022-10-28T11:36:24.336Z,10.93
2022-10-28T11:40:47.162Z,11.50
2022-10-28T11:44:58.189Z,9.83
2022-10-28T11:49:32.016Z,11.03
2022-10-28T11:53:45.616Z,11.47
2022-10-28T11:58:05.632Z,8.83
2022-10-28T12:02:43.267Z,6.47
2022-10-28T12:06:51.337Z,9.80
2022-10-28T12:11:05.045Z,13.80
2022-10-28T12:15:34.304Z,7.83
2022-10-28T12:19:47.921Z,12.07
2022-10-28T12:23:50.120Z,13.30
2022-10-28T12:27:54.900Z,7.93
2022-10-28T12:32:12.069Z,6.53
2022-10-28T12:36:32.585Z,10.73
2022-10-28T12:40:40.655Z,11.27
2022-10-28T12:44:42.832Z,9.10
2022-10-28T12:48:50.260Z,8.13
2022-10-28T12:53:03.661Z,9.00
2022-10-28T12:57:13.441Z,8.23
2022-10-28T13:01:17.539Z,10.20
2022-10-28T13:05:22.581Z,7.20
2022-10-28T13:09:51.937Z,7.63
2022-10-28T13:14:16.905Z,7.60
2022-10-28T13:18:42.970Z,10.03
2022-10-28T13:23:07.899Z,9.50
2022-10-28T13:27:12.478Z,8.17
2022-10-28T13:31:14.814Z,8.30
2022-10-28T13:35:25.604Z,9.70
2022-10-28T13:39:44.438Z,9.87
2022-10-28T13:43:53.756Z,8.53
2022-10-28T13:48:15.041Z,8.43
2022-10-28T13:52:20.595Z,8.57
2022-10-28T13:56:28.614Z,15.27
2022-10-28T14:00:33.617Z,11.97
2022-10-28T14:04:37.416Z,13.60
2022-10-28T14:08:40.630Z,11.30
2022-10-28T14:12:45.615Z,12.57
2022-10-28T14:16:46.826Z,9.80
2022-10-28T14:20:51.823Z,11.47
2022-10-28T14:24:53.003Z,8.87
2022-10-28T14:28:54.803Z,9.83
2022-10-28T14:33:00.784Z,9.60
2022-10-28T14:37:08.926Z,9.17
2022-10-28T14:41:36.757Z,8.30
2022-10-28T14:46:01.480Z,10.73
2022-10-28T14:50:21.265Z,7.90
2022-10-28T14:54:46.281Z,10.93
2022-10-28T14:58:48.028Z,13.70
2022-10-28T15:02:50.034Z,13.63
2022-10-28T15:06:51.916Z,13.07
2022-10-28T15:10:53.309Z,10.27
2022-10-28T15:14:57.214Z,10.43
2022-10-28T15:18:58.372Z,5.93
2022-10-28T15:23:15.357Z,9.80
2022-10-28T15:27:17.051Z,12.77
2022-10-28T15:31:18.393Z,8.90
2022-10-28T15:35:32.620Z,13.13
2022-10-28T15:39:34.858Z,12.70
2022-10-28T15:43:36.875Z,9.83
2022-10-28T15:47:38.159Z,10.50
2022-10-28T15:51:39.323Z,12.70
2022-10-28T15:56:06.599Z,8.27
2022-10-28T15:59:47.932Z,9.10
2022-10-28T16:03:49.242Z,9.17
2022-10-28T16:07:50.431Z,9.20
2022-10-28T16:11:58.001Z,12.23
2022-10-28T16:16:03.008Z,11.13
2022-10-28T16:20:18.828Z,17.43
2022-10-28T16:24:20.248Z,11.30
2022-10-28T16:28:26.357Z,11.63
2022-10-28T16:32:32.743Z,9.63
2022-10-28T16:36:33.780Z,7.73
2022-10-28T16:40:51.105Z,11.97
2022-10-28T16:44:38.021Z,9.57
2022-10-28T16:48:40.073Z,15.57
2022-10-28T16:52:41.281Z,17.33
2022-10-28T16:56:42.458Z,12.83
2022-10-28T17:00:44.015Z,9.33
2022-10-28T17:04:45.197Z,10.90
2022-10-28T17:09:03.231Z,9.90
2022-10-28T17:12:49.574Z,9.80
2022-10-28T17:16:50.758Z,11.73
2022-10-28T17:21:01.126Z,11.20
2022-10-28T17:25:02.558Z,8.50
2022-10-28T17:29:03.746Z,9.90
2022-10-28T17:33:04.824Z,14.50
2022-10-28T17:37:07.011Z,10.67
2022-10-28T17:41:08.196Z,15.20
2022-10-28T17:45:10.713Z,9.03
2022-10-28T17:49:11.996Z,11.70
2022-10-28T17:53:13.987Z,13.20
2022-10-28T17:57:15.180Z,11.37
2022-10-28T18:01:16.354Z,8.93
2022-10-28T18:05:17.584Z,16.13
2022-10-28T18:09:19.135Z,9.93
2022-10-28T18:13:22.806Z,11.97
2022-10-28T18:17:24.002Z,12.73
2022-10-28T18:21:25.316Z,12.77
2022-10-28T18:25:26.406Z,14.80
2022-10-28T18:29:27.483Z,27.27
2022-10-28T18:33:32.876Z,18.27
2022-10-28T18:37:34.052Z,14.20
2022-10-28T18:41:38.961Z,12.30
2022-10-28T18:45:40.139Z,11.93
2022-10-28T18:49:41.225Z,13.90
2022-10-28T18:53:45.637Z,17.17
2022-10-28T18:57:51.802Z,13.53
2022-10-28T19:01:53.036Z,24.53
2022-10-28T19:06:03.582Z,17.43
2022-10-28T19:10:05.480Z,14.43
2022-10-28T19:14:07.760Z,19.60
2022-10-28T19:18:08.934Z,16.60
2022-10-28T19:22:11.229Z,15.80
2022-10-28T19:26:13.099Z,15.13
2022-10-28T19:30:14.225Z,16.47
2022-10-28T19:34:15.425Z,16.73
2022-10-28T19:38:16.606Z,18.13
2022-10-28T19:42:17.728Z,12.90
2022-10-28T19:46:20.364Z,13.53
2022-10-28T19:50:21.484Z,20.03
2022-10-28T19:54:22.580Z,15.97
2022-10-28T19:58:23.961Z,18.70
2022-10-28T20:02:25.305Z,17.60
2022-10-28T20:06:32.984Z,18.47
2022-10-28T20:10:34.166Z,18.43
2022-10-28T20:14:35.433Z,15.07
2022-10-28T20:18:37.460Z,14.60
2022-10-28T20:22:42.174Z,18.20
2022-10-28T20:26:41.643Z,34.17
2022-10-28T20:30:42.807Z,53.73
2022-10-28T20:34:44.009Z,55.10
2022-10-28T20:38:45.193Z,30.60
2022-10-28T20:42:46.278Z,22.83
2022-10-28T20:46:47.356Z,18.27
2022-10-28T20:50:53.743Z,16.10
2022-10-28T20:54:54.917Z,14.27
2022-10-28T20:58:57.251Z,19.80
2022-10-28T21:02:58.780Z,15.80
2022-10-28T21:07:00.454Z,14.90
2022-10-28T21:11:03.270Z,10.63
2022-10-28T21:15:05.509Z,10.07
2022-10-28T21:19:06.729Z,14.27
2022-10-28T21:23:07.903Z,10.37
2022-10-28T21:27:09.105Z,12.67
2022-10-28T21:31:12.394Z,22.70
2022-10-28T21:35:13.698Z,25.60
2022-10-28T21:39:14.890Z,26.07
2022-10-28T21:43:15.956Z,14.30
2022-10-28T21:47:17.127Z,10.87
2022-10-28T21:51:18.352Z,12.00
2022-10-28T21:55:33.832Z,16.87
2022-10-28T21:59:22.719Z,20.77
2022-10-28T22:03:23.816Z,22.23
2022-10-28T22:07:24.910Z,16.73
2022-10-28T22:11:26.392Z,14.40
2022-10-28T22:15:27.575Z,15.40
2022-10-28T22:19:28.761Z,14.73
2022-10-28T22:23:30.761Z,14.50
2022-10-28T22:27:32.033Z,12.50
2022-10-28T22:31:33.522Z,22.67
2022-10-28T22:35:34.718Z,16.23
2022-10-28T22:39:35.912Z,12.70
2022-10-28T22:43:38.034Z,15.67
2022-10-28T22:47:39.228Z,13.40
2022-10-28T22:51:40.331Z,10.20
2022-10-28T22:55:41.619Z,10.43
2022-10-28T22:59:42.811Z,12.83
2022-10-28T23:03:46.304Z,12.70
2022-10-28T23:07:47.464Z,13.40
2022-10-28T23:11:48.754Z,16.70
2022-10-28T23:15:49.920Z,12.60
2022-10-28T23:19:51.031Z,13.23
2022-10-28T23:23:57.242Z,11.97
2022-10-28T23:27:58.930Z,14.90
2022-10-28T23:32:00.324Z,15.93
2022-10-28T23:36:05.957Z,16.53
2022-10-28T23:44:10.555Z,16.13
2022-10-28T23:48:11.633Z,13.00
2022-10-28T23:52:12.722Z,20.83
2022-10-28T23:56:13.900Z,14.43
